sensor_id;sensor_type;location;lat;lon;timestamp;P1;durP1;ratioP1;P2;durP2;ratioP2
3249;SDS011;1637;42.020;23.992;2023-05-13T00:01:04;11.00;;;6.67;;
3249;SDS011;1637;42.020;23.992;2023-05-13T00:03:31;8.80;;;5.50;;
3249;SDS011;1637;42.020;23.992;2023-05-13T00:05:58;9.17;;;5.73;;
3249;SDS011;1637;42.020;23.992;2023-05-13T00:08:25;7.40;;;6.20;;
3249;SDS011;1637;42.020;23.992;2023-05-13T00:10:53;6.00;;;5.40;;
3249;SDS011;1637;42.020;23.992;2023-05-13T00:13:20;7.13;;;5.50;;
3249;SDS011;1637;42.020;23.992;2023-05-13T00:15:47;7.30;;;6.03;;
3249;SDS011;1637;42.020;23.992;2023-05-13T00:18:13;5.50;;;5.00;;
3249;SDS011;1637;42.020;23.992;2023-05-13T00:20:40;6.63;;;5.20;;
3249;SDS011;1637;42.020;23.992;2023-05-13T00:23:07;8.50;;;5.83;;
3249;SDS011;1637;42.020;23.992;2023-05-13T00:25:34;7.63;;;5.80;;
3249;SDS011;1637;42.020;23.992;2023-05-13T00:28:02;10.50;;;6.30;;
3249;SDS011;1637;42.020;23.992;2023-05-13T00:30:29;8.90;;;7.80;;
3249;SDS011;1637;42.020;23.992;2023-05-13T00:32:56;12.70;;;7.80;;
3249;SDS011;1637;42.020;23.992;2023-05-13T00:35:23;12.60;;;8.17;;
3249;SDS011;1637;42.020;23.992;2023-05-13T00:37:50;13.17;;;9.40;;
3249;SDS011;1637;42.020;23.992;2023-05-13T00:40:18;14.37;;;9.20;;
3249;SDS011;1637;42.020;23.992;2023-05-13T00:42:46;13.17;;;10.27;;
3249;SDS011;1637;42.020;23.992;2023-05-13T00:45:14;19.20;;;10.80;;
3249;SDS011;1637;42.020;23.992;2023-05-13T00:47:41;23.03;;;11.13;;
3249;SDS011;1637;42.020;23.992;2023-05-13T00:50:09;16.40;;;11.00;;
3249;SDS011;1637;42.020;23.992;2023-05-13T00:52:37;23.47;;;11.27;;
3249;SDS011;1637;42.020;23.992;2023-05-13T00:55:05;16.03;;;11.53;;
3249;SDS011;1637;42.020;23.992;2023-05-13T00:57:32;19.83;;;10.87;;
3249;SDS011;1637;42.020;23.992;2023-05-13T01:00:00;16.93;;;11.23;;
3249;SDS011;1637;42.020;23.992;2023-05-13T01:02:31;12.37;;;9.33;;
3249;SDS011;1637;42.020;23.992;2023-05-13T01:05:05;16.40;;;10.13;;
3249;SDS011;1637;42.020;23.992;2023-05-13T01:07:40;14.70;;;9.20;;
3249;SDS011;1637;42.020;23.992;2023-05-13T01:10:13;16.50;;;10.67;;
3249;SDS011;1637;42.020;23.992;2023-05-13T01:12:45;14.40;;;9.43;;
3249;SDS011;1637;42.020;23.992;2023-05-13T01:15:14;11.93;;;8.93;;
3249;SDS011;1637;42.020;23.992;2023-05-13T01:17:46;11.30;;;9.20;;
3249;SDS011;1637;42.020;23.992;2023-05-13T01:20:20;14.27;;;8.63;;
3249;SDS011;1637;42.020;23.992;2023-05-13T01:22:49;11.10;;;8.90;;
3249;SDS011;1637;42.020;23.992;2023-05-13T01:25:16;12.70;;;9.47;;
3249;SDS011;1637;42.020;23.992;2023-05-13T01:27:43;15.80;;;9.93;;
3249;SDS011;1637;42.020;23.992;2023-05-13T01:30:10;11.57;;;8.70;;
3249;SDS011;1637;42.020;23.992;2023-05-13T01:32:38;17.83;;;9.53;;
3249;SDS011;1637;42.020;23.992;2023-05-13T01:35:05;15.00;;;7.80;;
3249;SDS011;1637;42.020;23.992;2023-05-13T01:37:34;13.83;;;9.00;;
3249;SDS011;1637;42.020;23.992;2023-05-13T01:40:04;9.93;;;6.33;;
3249;SDS011;1637;42.020;23.992;2023-05-13T01:42:31;9.17;;;6.23;;
3249;SDS011;1637;42.020;23.992;2023-05-13T01:44:59;12.47;;;6.33;;
3249;SDS011;1637;42.020;23.992;2023-05-13T01:47:26;19.73;;;8.00;;
3249;SDS011;1637;42.020;23.992;2023-05-13T01:49:52;6.77;;;4.63;;
3249;SDS011;1637;42.020;23.992;2023-05-13T01:52:20;7.43;;;5.70;;
3249;SDS011;1637;42.020;23.992;2023-05-13T01:54:47;7.60;;;4.67;;
3249;SDS011;1637;42.020;23.992;2023-05-13T01:57:15;4.60;;;4.20;;
3249;SDS011;1637;42.020;23.992;2023-05-13T01:59:42;8.27;;;4.57;;
3249;SDS011;1637;42.020;23.992;2023-05-13T02:02:09;10.93;;;6.43;;
3249;SDS011;1637;42.020;23.992;2023-05-13T02:04:36;10.20;;;6.00;;
3249;SDS011;1637;42.020;23.992;2023-05-13T02:07:03;12.37;;;5.40;;
3249;SDS011;1637;42.020;23.992;2023-05-13T02:09:29;7.60;;;3.43;;
3249;SDS011;1637;42.020;23.992;2023-05-13T02:11:56;5.60;;;3.40;;
3249;SDS011;1637;42.020;23.992;2023-05-13T02:14:24;4.77;;;3.87;;
3249;SDS011;1637;42.020;23.992;2023-05-13T02:16:51;7.00;;;3.87;;
3249;SDS011;1637;42.020;23.992;2023-05-13T02:19:18;5.03;;;3.90;;
3249;SDS011;1637;42.020;23.992;2023-05-13T02:21:45;6.03;;;4.53;;
3249;SDS011;1637;42.020;23.992;2023-05-13T02:24:11;6.63;;;4.33;;
3249;SDS011;1637;42.020;23.992;2023-05-13T02:26:38;8.13;;;3.70;;
3249;SDS011;1637;42.020;23.992;2023-05-13T02:29:06;6.07;;;3.30;;
3249;SDS011;1637;42.020;23.992;2023-05-13T02:31:34;4.20;;;3.80;;
3249;SDS011;1637;42.020;23.992;2023-05-13T02:34:01;5.93;;;2.90;;
3249;SDS011;1637;42.020;23.992;2023-05-13T02:36:28;4.13;;;3.27;;
3249;SDS011;1637;42.020;23.992;2023-05-13T02:38:55;8.07;;;3.40;;
3249;SDS011;1637;42.020;23.992;2023-05-13T02:41:22;7.03;;;3.67;;
3249;SDS011;1637;42.020;23.992;2023-05-13T02:43:50;5.43;;;3.67;;
3249;SDS011;1637;42.020;23.992;2023-05-13T02:46:17;9.63;;;3.37;;
3249;SDS011;1637;42.020;23.992;2023-05-13T02:48:45;4.30;;;3.77;;
3249;SDS011;1637;42.020;23.992;2023-05-13T02:51:11;45.40;;;14.60;;
3249;SDS011;1637;42.020;23.992;2023-05-13T02:53:38;7.80;;;4.33;;
3249;SDS011;1637;42.020;23.992;2023-05-13T02:56:05;6.27;;;4.00;;
3249;SDS011;1637;42.020;23.992;2023-05-13T02:58:33;5.40;;;3.90;;
3249;SDS011;1637;42.020;23.992;2023-05-13T03:01:00;7.30;;;6.20;;
3249;SDS011;1637;42.020;23.992;2023-05-13T03:03:27;6.17;;;4.43;;
3249;SDS011;1637;42.020;23.992;2023-05-13T03:05:55;4.90;;;4.00;;
3249;SDS011;1637;42.020;23.992;2023-05-13T03:08:22;7.17;;;4.20;;
3249;SDS011;1637;42.020;23.992;2023-05-13T03:10:49;5.97;;;4.27;;
3249;SDS011;1637;42.020;23.992;2023-05-13T03:13:16;7.97;;;4.17;;
3249;SDS011;1637;42.020;23.992;2023-05-13T03:15:43;15.27;;;4.00;;
3249;SDS011;1637;42.020;23.992;2023-05-13T03:18:10;9.30;;;3.73;;
3249;SDS011;1637;42.020;23.992;2023-05-13T03:20:36;9.33;;;3.70;;
3249;SDS011;1637;42.020;23.992;2023-05-13T03:23:05;5.40;;;4.10;;
3249;SDS011;1637;42.020;23.992;2023-05-13T03:25:31;8.03;;;4.80;;
3249;SDS011;1637;42.020;23.992;2023-05-13T03:27:58;12.00;;;5.60;;
3249;SDS011;1637;42.020;23.992;2023-05-13T03:30:25;9.13;;;4.43;;
3249;SDS011;1637;42.020;23.992;2023-05-13T03:32:52;8.50;;;4.67;;
3249;SDS011;1637;42.020;23.992;2023-05-13T03:35:20;7.30;;;5.47;;
3249;SDS011;1637;42.020;23.992;2023-05-13T03:37:47;10.33;;;5.00;;
3249;SDS011;1637;42.020;23.992;2023-05-13T03:40:15;9.47;;;6.53;;
3249;SDS011;1637;42.020;23.992;2023-05-13T03:42:42;17.20;;;5.77;;
3249;SDS011;1637;42.020;23.992;2023-05-13T03:45:09;10.00;;;5.87;;
3249;SDS011;1637;42.020;23.992;2023-05-13T03:47:36;10.80;;;5.83;;
3249;SDS011;1637;42.020;23.992;2023-05-13T03:50:03;7.30;;;5.13;;
3249;SDS011;1637;42.020;23.992;2023-05-13T03:52:31;12.50;;;6.53;;
3249;SDS011;1637;42.020;23.992;2023-05-13T03:54:58;10.03;;;6.77;;
3249;SDS011;1637;42.020;23.992;2023-05-13T03:57:26;9.70;;;6.30;;
3249;SDS011;1637;42.020;23.992;2023-05-13T03:59:52;9.83;;;6.83;;
3249;SDS011;1637;42.020;23.992;2023-05-13T04:02:19;10.37;;;5.50;;
3249;SDS011;1637;42.020;23.992;2023-05-13T04:04:48;9.80;;;5.10;;
3249;SDS011;1637;42.020;23.992;2023-05-13T04:07:15;12.87;;;6.10;;
3249;SDS011;1637;42.020;23.992;2023-05-13T04:09:41;9.20;;;5.17;;
3249;SDS011;1637;42.020;23.992;2023-05-13T04:12:08;6.93;;;4.60;;
3249;SDS011;1637;42.020;23.992;2023-05-13T04:14:36;8.03;;;4.07;;
3249;SDS011;1637;42.020;23.992;2023-05-13T04:17:04;8.57;;;5.57;;
3249;SDS011;1637;42.020;23.992;2023-05-13T04:19:31;14.33;;;5.93;;
3249;SDS011;1637;42.020;23.992;2023-05-13T04:21:57;12.00;;;6.50;;
3249;SDS011;1637;42.020;23.992;2023-05-13T04:24:24;11.03;;;5.13;;
3249;SDS011;1637;42.020;23.992;2023-05-13T04:26:51;10.27;;;4.75;;
3249;SDS011;1637;42.020;23.992;2023-05-13T04:29:18;10.00;;;6.90;;
3249;SDS011;1637;42.020;23.992;2023-05-13T04:31:46;9.73;;;5.83;;
3249;SDS011;1637;42.020;23.992;2023-05-13T04:34:13;14.97;;;7.03;;
3249;SDS011;1637;42.020;23.992;2023-05-13T04:36:40;8.83;;;5.47;;
3249;SDS011;1637;42.020;23.992;2023-05-13T04:39:06;20.40;;;6.33;;
3249;SDS011;1637;42.020;23.992;2023-05-13T04:41:34;12.47;;;6.40;;
3249;SDS011;1637;42.020;23.992;2023-05-13T04:44:01;9.77;;;6.10;;
3249;SDS011;1637;42.020;23.992;2023-05-13T04:46:30;18.23;;;6.10;;
3249;SDS011;1637;42.020;23.992;2023-05-13T04:48:58;15.53;;;9.90;;
3249;SDS011;1637;42.020;23.992;2023-05-13T04:51:25;26.50;;;15.10;;
3249;SDS011;1637;42.020;23.992;2023-05-13T04:53:52;15.83;;;11.20;;
3249;SDS011;1637;42.020;23.992;2023-05-13T04:56:18;22.03;;;11.70;;
3249;SDS011;1637;42.020;23.992;2023-05-13T04:58:45;15.40;;;10.10;;
3249;SDS011;1637;42.020;23.992;2023-05-13T05:01:12;18.33;;;11.23;;
3249;SDS011;1637;42.020;23.992;2023-05-13T05:03:39;25.00;;;10.67;;
3249;SDS011;1637;42.020;23.992;2023-05-13T05:06:07;10.50;;;6.93;;
3249;SDS011;1637;42.020;23.992;2023-05-13T05:08:34;27.73;;;13.97;;
3249;SDS011;1637;42.020;23.992;2023-05-13T05:11:01;12.97;;;6.63;;
3249;SDS011;1637;42.020;23.992;2023-05-13T05:13:28;7.60;;;5.90;;
3249;SDS011;1637;42.020;23.992;2023-05-13T05:15:55;5.60;;;4.80;;
3249;SDS011;1637;42.020;23.992;2023-05-13T05:18:21;7.73;;;5.43;;
3249;SDS011;1637;42.020;23.992;2023-05-13T05:20:48;8.60;;;4.73;;
3249;SDS011;1637;42.020;23.992;2023-05-13T05:23:16;11.40;;;5.70;;
3249;SDS011;1637;42.020;23.992;2023-05-13T05:25:43;13.00;;;5.00;;
3249;SDS011;1637;42.020;23.992;2023-05-13T05:28:10;12.50;;;5.53;;
3249;SDS011;1637;42.020;23.992;2023-05-13T05:30:37;11.73;;;6.40;;
3249;SDS011;1637;42.020;23.992;2023-05-13T05:33:04;22.90;;;8.33;;
3249;SDS011;1637;42.020;23.992;2023-05-13T05:35:31;14.10;;;8.00;;
3249;SDS011;1637;42.020;23.992;2023-05-13T05:38:01;9.43;;;6.03;;
3249;SDS011;1637;42.020;23.992;2023-05-13T05:40:29;7.87;;;5.80;;
3249;SDS011;1637;42.020;23.992;2023-05-13T05:42:56;7.30;;;4.67;;
3249;SDS011;1637;42.020;23.992;2023-05-13T05:45:23;88.27;;;31.57;;
3249;SDS011;1637;42.020;23.992;2023-05-13T05:47:50;22.30;;;9.30;;
3249;SDS011;1637;42.020;23.992;2023-05-13T05:50:18;30.07;;;7.17;;
3249;SDS011;1637;42.020;23.992;2023-05-13T05:52:44;11.70;;;6.27;;
3249;SDS011;1637;42.020;23.992;2023-05-13T05:55:11;22.87;;;6.40;;
3249;SDS011;1637;42.020;23.992;2023-05-13T05:57:39;15.30;;;7.00;;
3249;SDS011;1637;42.020;23.992;2023-05-13T06:00:07;10.60;;;6.73;;
3249;SDS011;1637;42.020;23.992;2023-05-13T06:02:34;22.33;;;12.10;;
3249;SDS011;1637;42.020;23.992;2023-05-13T06:05:01;24.33;;;11.00;;
3249;SDS011;1637;42.020;23.992;2023-05-13T06:07:28;12.67;;;7.50;;
3249;SDS011;1637;42.020;23.992;2023-05-13T06:09:55;11.67;;;7.00;;
3249;SDS011;1637;42.020;23.992;2023-05-13T06:12:22;13.80;;;9.83;;
3249;SDS011;1637;42.020;23.992;2023-05-13T06:14:50;18.53;;;10.70;;
3249;SDS011;1637;42.020;23.992;2023-05-13T06:17:17;18.50;;;9.30;;
3249;SDS011;1637;42.020;23.992;2023-05-13T06:19:44;19.60;;;9.20;;
3249;SDS011;1637;42.020;23.992;2023-05-13T06:22:11;21.43;;;9.13;;
3249;SDS011;1637;42.020;23.992;2023-05-13T06:24:37;12.23;;;7.93;;
3249;SDS011;1637;42.020;23.992;2023-05-13T06:27:06;23.97;;;8.50;;
3249;SDS011;1637;42.020;23.992;2023-05-13T06:29:33;11.17;;;6.97;;
3249;SDS011;1637;42.020;23.992;2023-05-13T06:32:01;8.10;;;6.27;;
3249;SDS011;1637;42.020;23.992;2023-05-13T06:34:29;16.77;;;8.23;;
3249;SDS011;1637;42.020;23.992;2023-05-13T06:36:56;13.93;;;7.47;;
3249;SDS011;1637;42.020;23.992;2023-05-13T06:39:23;10.50;;;7.40;;
3249;SDS011;1637;42.020;23.992;2023-05-13T06:41:50;11.67;;;7.63;;
3249;SDS011;1637;42.020;23.992;2023-05-13T06:44:16;11.50;;;6.70;;
3249;SDS011;1637;42.020;23.992;2023-05-13T06:46:43;12.90;;;7.60;;
3249;SDS011;1637;42.020;23.992;2023-05-13T06:49:11;11.77;;;7.33;;
3249;SDS011;1637;42.020;23.992;2023-05-13T06:51:38;13.23;;;8.80;;
3249;SDS011;1637;42.020;23.992;2023-05-13T06:54:05;15.43;;;8.20;;
3249;SDS011;1637;42.020;23.992;2023-05-13T06:56:32;16.97;;;8.07;;
3249;SDS011;1637;42.020;23.992;2023-05-13T06:58:59;20.17;;;11.33;;
3249;SDS011;1637;42.020;23.992;2023-05-13T07:01:26;14.43;;;10.30;;
3249;SDS011;1637;42.020;23.992;2023-05-13T07:03:53;26.53;;;11.20;;
3249;SDS011;1637;42.020;23.992;2023-05-13T07:06:21;77.73;;;38.90;;
3249;SDS011;1637;42.020;23.992;2023-05-13T07:08:48;46.43;;;22.70;;
3249;SDS011;1637;42.020;23.992;2023-05-13T07:11:15;14.40;;;8.73;;
3249;SDS011;1637;42.020;23.992;2023-05-13T07:13:42;16.90;;;9.73;;
3249;SDS011;1637;42.020;23.992;2023-05-13T07:16:08;15.77;;;9.33;;
3249;SDS011;1637;42.020;23.992;2023-05-13T07:18:35;14.97;;;9.80;;
3249;SDS011;1637;42.020;23.992;2023-05-13T07:21:02;16.53;;;10.03;;
3249;SDS011;1637;42.020;23.992;2023-05-13T07:23:32;20.30;;;11.73;;
3249;SDS011;1637;42.020;23.992;2023-05-13T07:25:59;12.70;;;8.40;;
3249;SDS011;1637;42.020;23.992;2023-05-13T07:28:27;15.70;;;10.10;;
3249;SDS011;1637;42.020;23.992;2023-05-13T07:30:53;23.87;;;9.67;;
3249;SDS011;1637;42.020;23.992;2023-05-13T07:33:20;24.90;;;10.63;;
3249;SDS011;1637;42.020;23.992;2023-05-13T07:35:47;13.80;;;9.33;;
3249;SDS011;1637;42.020;23.992;2023-05-13T07:38:14;11.67;;;8.80;;
3249;SDS011;1637;42.020;23.992;2023-05-13T07:40:42;16.77;;;9.47;;
3249;SDS011;1637;42.020;23.992;2023-05-13T07:43:09;13.27;;;8.50;;
3249;SDS011;1637;42.020;23.992;2023-05-13T07:45:37;12.20;;;9.37;;
3249;SDS011;1637;42.020;23.992;2023-05-13T07:48:04;28.67;;;12.80;;
3249;SDS011;1637;42.020;23.992;2023-05-13T07:50:31;18.07;;;9.43;;
3249;SDS011;1637;42.020;23.992;2023-05-13T07:52:58;20.23;;;10.80;;
3249;SDS011;1637;42.020;23.992;2023-05-13T07:55:25;20.70;;;11.30;;
3249;SDS011;1637;42.020;23.992;2023-05-13T07:57:53;35.40;;;18.50;;
3249;SDS011;1637;42.020;23.992;2023-05-13T08:00:20;11.73;;;8.17;;
3249;SDS011;1637;42.020;23.992;2023-05-13T08:02:47;11.80;;;7.80;;
3249;SDS011;1637;42.020;23.992;2023-05-13T08:05:14;20.30;;;9.53;;
3249;SDS011;1637;42.020;23.992;2023-05-13T08:07:41;18.43;;;9.00;;
3249;SDS011;1637;42.020;23.992;2023-05-13T08:10:07;14.03;;;7.97;;
3249;SDS011;1637;42.020;23.992;2023-05-13T08:12:35;12.30;;;6.67;;
3249;SDS011;1637;42.020;23.992;2023-05-13T08:15:03;14.60;;;9.07;;
3249;SDS011;1637;42.020;23.992;2023-05-13T08:17:31;14.83;;;7.33;;
3249;SDS011;1637;42.020;23.992;2023-05-13T08:19:59;14.70;;;6.80;;
3249;SDS011;1637;42.020;23.992;2023-05-13T08:22:27;17.70;;;7.97;;
3249;SDS011;1637;42.020;23.992;2023-05-13T08:24:54;9.63;;;7.33;;
3249;SDS011;1637;42.020;23.992;2023-05-13T08:27:20;9.20;;;6.70;;
3249;SDS011;1637;42.020;23.992;2023-05-13T08:29:47;10.00;;;5.80;;
3249;SDS011;1637;42.020;23.992;2023-05-13T08:32:15;10.07;;;7.10;;
3249;SDS011;1637;42.020;23.992;2023-05-13T08:34:42;13.37;;;9.50;;
3249;SDS011;1637;42.020;23.992;2023-05-13T08:37:09;8.97;;;7.00;;
3249;SDS011;1637;42.020;23.992;2023-05-13T08:39:36;21.53;;;5.77;;
3249;SDS011;1637;42.020;23.992;2023-05-13T08:42:03;8.30;;;6.20;;
3249;SDS011;1637;42.020;23.992;2023-05-13T08:44:33;8.90;;;4.50;;
3249;SDS011;1637;42.020;23.992;2023-05-13T08:47:07;4.37;;;3.83;;
3249;SDS011;1637;42.020;23.992;2023-05-13T08:49:42;4.10;;;3.70;;
3249;SDS011;1637;42.020;23.992;2023-05-13T08:52:11;6.83;;;5.23;;
3249;SDS011;1637;42.020;23.992;2023-05-13T08:54:38;4.73;;;4.30;;
3249;SDS011;1637;42.020;23.992;2023-05-13T08:57:06;7.53;;;3.73;;
3249;SDS011;1637;42.020;23.992;2023-05-13T08:59:32;6.10;;;4.83;;
3249;SDS011;1637;42.020;23.992;2023-05-13T09:01:59;8.33;;;4.70;;
3249;SDS011;1637;42.020;23.992;2023-05-13T09:04:28;23.57;;;5.80;;
3249;SDS011;1637;42.020;23.992;2023-05-13T09:06:56;5.13;;;4.20;;
3249;SDS011;1637;42.020;23.992;2023-05-13T09:09:23;3.10;;;2.80;;
3249;SDS011;1637;42.020;23.992;2023-05-13T09:11:50;4.10;;;3.70;;
3249;SDS011;1637;42.020;23.992;2023-05-13T09:14:17;3.43;;;2.20;;
3249;SDS011;1637;42.020;23.992;2023-05-13T09:16:45;5.27;;;3.23;;
3249;SDS011;1637;42.020;23.992;2023-05-13T09:19:13;14.50;;;4.27;;
3249;SDS011;1637;42.020;23.992;2023-05-13T09:21:39;3.97;;;2.47;;
3249;SDS011;1637;42.020;23.992;2023-05-13T09:24:10;6.00;;;3.10;;
3249;SDS011;1637;42.020;23.992;2023-05-13T09:26:42;3.10;;;2.70;;
3249;SDS011;1637;42.020;23.992;2023-05-13T09:29:19;5.50;;;2.70;;
3249;SDS011;1637;42.020;23.992;2023-05-13T09:31:48;3.23;;;2.93;;
3249;SDS011;1637;42.020;23.992;2023-05-13T09:34:26;4.10;;;3.50;;
3249;SDS011;1637;42.020;23.992;2023-05-13T09:36:54;5.23;;;2.50;;
3249;SDS011;1637;42.020;23.992;2023-05-13T09:39:23;13.43;;;3.33;;
3249;SDS011;1637;42.020;23.992;2023-05-13T09:41:51;3.30;;;2.10;;
3249;SDS011;1637;42.020;23.992;2023-05-13T09:44:17;2.67;;;2.20;;
3249;SDS011;1637;42.020;23.992;2023-05-13T09:46:45;3.47;;;2.43;;
3249;SDS011;1637;42.020;23.992;2023-05-13T09:49:13;7.53;;;2.70;;
3249;SDS011;1637;42.020;23.992;2023-05-13T09:51:41;9.20;;;2.50;;
3249;SDS011;1637;42.020;23.992;2023-05-13T09:54:09;13.13;;;3.13;;
3249;SDS011;1637;42.020;23.992;2023-05-13T09:56:38;7.17;;;3.97;;
3249;SDS011;1637;42.020;23.992;2023-05-13T09:59:04;20.43;;;17.40;;
3249;SDS011;1637;42.020;23.992;2023-05-13T10:01:31;4.93;;;1.70;;
3249;SDS011;1637;42.020;23.992;2023-05-13T10:04:01;2.80;;;2.50;;
3249;SDS011;1637;42.020;23.992;2023-05-13T10:06:30;6.53;;;2.10;;
3249;SDS011;1637;42.020;23.992;2023-05-13T10:08:59;7.33;;;2.00;;
3249;SDS011;1637;42.020;23.992;2023-05-13T10:11:27;2.60;;;1.87;;
3249;SDS011;1637;42.020;23.992;2023-05-13T10:13:59;6.73;;;1.73;;
3249;SDS011;1637;42.020;23.992;2023-05-13T10:16:27;2.73;;;1.37;;
3249;SDS011;1637;42.020;23.992;2023-05-13T10:18:55;3.10;;;2.20;;
3249;SDS011;1637;42.020;23.992;2023-05-13T10:21:22;5.33;;;1.97;;
3249;SDS011;1637;42.020;23.992;2023-05-13T10:23:50;4.43;;;1.80;;
3249;SDS011;1637;42.020;23.992;2023-05-13T10:26:17;7.20;;;1.60;;
3249;SDS011;1637;42.020;23.992;2023-05-13T10:28:45;4.87;;;4.10;;
3249;SDS011;1637;42.020;23.992;2023-05-13T10:31:14;1.80;;;1.47;;
3249;SDS011;1637;42.020;23.992;2023-05-13T10:33:41;11.23;;;3.47;;
3249;SDS011;1637;42.020;23.992;2023-05-13T10:36:15;3.50;;;2.27;;
3249;SDS011;1637;42.020;23.992;2023-05-13T10:39:13;3.43;;;1.53;;
3249;SDS011;1637;42.020;23.992;2023-05-13T10:44:57;1.90;;;1.70;;
3249;SDS011;1637;42.020;23.992;2023-05-13T10:47:25;5.10;;;3.13;;
3249;SDS011;1637;42.020;23.992;2023-05-13T10:49:52;9.90;;;7.40;;
3249;SDS011;1637;42.020;23.992;2023-05-13T10:52:19;2.00;;;1.40;;
3249;SDS011;1637;42.020;23.992;2023-05-13T10:54:56;4.60;;;1.83;;
3249;SDS011;1637;42.020;23.992;2023-05-13T10:57:26;4.70;;;1.60;;
3249;SDS011;1637;42.020;23.992;2023-05-13T11:00:09;2.90;;;2.10;;
3249;SDS011;1637;42.020;23.992;2023-05-13T11:02:40;2.87;;;2.10;;
3249;SDS011;1637;42.020;23.992;2023-05-13T11:05:07;6.87;;;2.23;;
3249;SDS011;1637;42.020;23.992;2023-05-13T11:07:36;2.40;;;1.67;;
3249;SDS011;1637;42.020;23.992;2023-05-13T11:10:04;3.80;;;2.40;;
3249;SDS011;1637;42.020;23.992;2023-05-13T11:13:05;2.57;;;1.80;;
3249;SDS011;1637;42.020;23.992;2023-05-13T11:15:47;1.80;;;1.30;;
3249;SDS011;1637;42.020;23.992;2023-05-13T11:18:16;5.67;;;1.90;;
3249;SDS011;1637;42.020;23.992;2023-05-13T11:20:44;2.93;;;1.70;;
3249;SDS011;1637;42.020;23.992;2023-05-13T11:23:15;2.40;;;1.70;;
3249;SDS011;1637;42.020;23.992;2023-05-13T11:25:43;3.97;;;2.33;;
3249;SDS011;1637;42.020;23.992;2023-05-13T11:28:13;4.03;;;2.20;;
3249;SDS011;1637;42.020;23.992;2023-05-13T11:30:51;3.33;;;2.33;;
3249;SDS011;1637;42.020;23.992;2023-05-13T11:33:21;5.03;;;1.80;;
3249;SDS011;1637;42.020;23.992;2023-05-13T11:35:54;5.03;;;1.83;;
3249;SDS011;1637;42.020;23.992;2023-05-13T11:38:22;2.07;;;1.50;;
3249;SDS011;1637;42.020;23.992;2023-05-13T11:40:50;9.90;;;3.60;;
3249;SDS011;1637;42.020;23.992;2023-05-13T11:43:20;2.77;;;1.70;;
3249;SDS011;1637;42.020;23.992;2023-05-13T11:45:49;4.23;;;2.70;;
3249;SDS011;1637;42.020;23.992;2023-05-13T11:48:18;4.87;;;2.83;;
3249;SDS011;1637;42.020;23.992;2023-05-13T11:50:47;6.00;;;2.13;;
3249;SDS011;1637;42.020;23.992;2023-05-13T11:53:18;3.83;;;1.83;;
3249;SDS011;1637;42.020;23.992;2023-05-13T11:55:46;2.80;;;1.50;;
3249;SDS011;1637;42.020;23.992;2023-05-13T11:58:13;5.20;;;2.27;;
3249;SDS011;1637;42.020;23.992;2023-05-13T12:00:40;2.63;;;1.70;;
3249;SDS011;1637;42.020;23.992;2023-05-13T12:03:08;5.43;;;1.70;;
3249;SDS011;1637;42.020;23.992;2023-05-13T12:05:36;3.10;;;1.40;;
3249;SDS011;1637;42.020;23.992;2023-05-13T12:08:05;1.80;;;1.70;;
3249;SDS011;1637;42.020;23.992;2023-05-13T12:10:33;8.53;;;2.30;;
3249;SDS011;1637;42.020;23.992;2023-05-13T12:13:00;3.00;;;1.30;;
3249;SDS011;1637;42.020;23.992;2023-05-13T12:15:27;2.50;;;1.90;;
3249;SDS011;1637;42.020;23.992;2023-05-13T12:17:55;3.30;;;1.60;;
3249;SDS011;1637;42.020;23.992;2023-05-13T12:20:23;1.80;;;1.50;;
3249;SDS011;1637;42.020;23.992;2023-05-13T12:22:51;2.10;;;1.90;;
3249;SDS011;1637;42.020;23.992;2023-05-13T12:28:09;4.50;;;1.50;;
3249;SDS011;1637;42.020;23.992;2023-05-13T12:30:41;1.87;;;1.60;;
3249;SDS011;1637;42.020;23.992;2023-05-13T12:33:12;5.50;;;2.43;;
3249;SDS011;1637;42.020;23.992;2023-05-13T12:35:40;5.03;;;2.20;;
3249;SDS011;1637;42.020;23.992;2023-05-13T12:38:07;2.70;;;2.20;;
3249;SDS011;1637;42.020;23.992;2023-05-13T12:40:34;5.80;;;2.57;;
3249;SDS011;1637;42.020;23.992;2023-05-13T12:43:02;4.07;;;2.63;;
3249;SDS011;1637;42.020;23.992;2023-05-13T12:45:29;3.80;;;1.87;;
3249;SDS011;1637;42.020;23.992;2023-05-13T12:47:57;2.80;;;1.83;;
3249;SDS011;1637;42.020;23.992;2023-05-13T12:50:25;4.00;;;2.10;;
3249;SDS011;1637;42.020;23.992;2023-05-13T12:52:52;1.93;;;1.43;;
3249;SDS011;1637;42.020;23.992;2023-05-13T12:55:19;9.40;;;1.83;;
3249;SDS011;1637;42.020;23.992;2023-05-13T12:57:53;2.97;;;1.60;;
3249;SDS011;1637;42.020;23.992;2023-05-13T13:00:22;3.60;;;1.50;;
3249;SDS011;1637;42.020;23.992;2023-05-13T13:02:49;13.90;;;2.20;;
3249;SDS011;1637;42.020;23.992;2023-05-13T13:05:18;3.03;;;1.57;;
3249;SDS011;1637;42.020;23.992;2023-05-13T13:07:46;2.00;;;1.60;;
3249;SDS011;1637;42.020;23.992;2023-05-13T13:10:13;2.37;;;2.10;;
3249;SDS011;1637;42.020;23.992;2023-05-13T13:12:40;4.43;;;2.33;;
3249;SDS011;1637;42.020;23.992;2023-05-13T13:15:08;4.30;;;1.53;;
3249;SDS011;1637;42.020;23.992;2023-05-13T13:17:37;2.80;;;1.40;;
3249;SDS011;1637;42.020;23.992;2023-05-13T13:20:04;5.43;;;2.47;;
3249;SDS011;1637;42.020;23.992;2023-05-13T13:22:32;2.20;;;1.60;;
3249;SDS011;1637;42.020;23.992;2023-05-13T13:25:01;5.73;;;1.57;;
3249;SDS011;1637;42.020;23.992;2023-05-13T13:27:28;1.73;;;1.63;;
3249;SDS011;1637;42.020;23.992;2023-05-13T13:29:55;3.70;;;1.70;;
3249;SDS011;1637;42.020;23.992;2023-05-13T13:32:22;3.67;;;1.77;;
3249;SDS011;1637;42.020;23.992;2023-05-13T13:34:50;4.30;;;1.50;;
3249;SDS011;1637;42.020;23.992;2023-05-13T13:37:17;1.83;;;1.60;;
3249;SDS011;1637;42.020;23.992;2023-05-13T13:39:44;10.40;;;2.30;;
3249;SDS011;1637;42.020;23.992;2023-05-13T13:42:10;5.60;;;1.90;;
3249;SDS011;1637;42.020;23.992;2023-05-13T13:44:38;5.57;;;1.90;;
3249;SDS011;1637;42.020;23.992;2023-05-13T13:47:04;2.80;;;1.70;;
3249;SDS011;1637;42.020;23.992;2023-05-13T13:49:31;5.50;;;2.97;;
3249;SDS011;1637;42.020;23.992;2023-05-13T13:51:59;2.83;;;2.07;;
3249;SDS011;1637;42.020;23.992;2023-05-13T13:54:26;3.30;;;2.10;;
3249;SDS011;1637;42.020;23.992;2023-05-13T13:56:53;1.90;;;1.70;;
3249;SDS011;1637;42.020;23.992;2023-05-13T13:59:20;6.60;;;3.90;;
3249;SDS011;1637;42.020;23.992;2023-05-13T14:01:47;4.83;;;2.27;;
3249;SDS011;1637;42.020;23.992;2023-05-13T14:04:14;8.23;;;3.10;;
3249;SDS011;1637;42.020;23.992;2023-05-13T14:06:43;4.97;;;2.70;;
3249;SDS011;1637;42.020;23.992;2023-05-13T14:09:12;3.50;;;1.73;;
3249;SDS011;1637;42.020;23.992;2023-05-13T14:11:39;3.90;;;1.80;;
3249;SDS011;1637;42.020;23.992;2023-05-13T14:14:06;2.40;;;1.80;;
3249;SDS011;1637;42.020;23.992;2023-05-13T14:16:33;3.07;;;2.07;;
3249;SDS011;1637;42.020;23.992;2023-05-13T14:19:00;4.17;;;2.17;;
3249;SDS011;1637;42.020;23.992;2023-05-13T14:21:27;4.60;;;1.80;;
3249;SDS011;1637;42.020;23.992;2023-05-13T14:23:54;2.40;;;1.70;;
3249;SDS011;1637;42.020;23.992;2023-05-13T14:26:22;2.30;;;1.73;;
3249;SDS011;1637;42.020;23.992;2023-05-13T14:28:50;7.20;;;4.10;;
3249;SDS011;1637;42.020;23.992;2023-05-13T14:31:17;2.63;;;2.03;;
3249;SDS011;1637;42.020;23.992;2023-05-13T14:33:43;9.00;;;2.90;;
3249;SDS011;1637;42.020;23.992;2023-05-13T14:36:10;1.83;;;1.60;;
3249;SDS011;1637;42.020;23.992;2023-05-13T14:38:40;6.33;;;2.00;;
3249;SDS011;1637;42.020;23.992;2023-05-13T14:41:07;4.27;;;2.30;;
3249;SDS011;1637;42.020;23.992;2023-05-13T14:43:35;3.30;;;2.10;;
3249;SDS011;1637;42.020;23.992;2023-05-13T14:46:02;3.53;;;2.53;;
3249;SDS011;1637;42.020;23.992;2023-05-13T14:48:28;4.50;;;2.03;;
3249;SDS011;1637;42.020;23.992;2023-05-13T14:50:55;2.60;;;2.03;;
3249;SDS011;1637;42.020;23.992;2023-05-13T14:53:22;6.93;;;2.10;;
3249;SDS011;1637;42.020;23.992;2023-05-13T14:55:49;5.10;;;2.50;;
3249;SDS011;1637;42.020;23.992;2023-05-13T14:58:15;4.50;;;1.60;;
3249;SDS011;1637;42.020;23.992;2023-05-13T15:00:44;5.03;;;2.63;;
3249;SDS011;1637;42.020;23.992;2023-05-13T15:03:10;3.03;;;2.50;;
3249;SDS011;1637;42.020;23.992;2023-05-13T15:05:37;5.80;;;2.40;;